createdAt,value
2018-07-23T00:00:37.087Z,9.23
2018-07-23T00:03:05.793Z,9.67
2018-07-23T00:05:34.460Z,8.27
2018-07-23T00:08:03.229Z,9.47
2018-07-23T00:10:32.148Z,9.80
2018-07-23T00:13:00.850Z,8.63
2018-07-23T00:15:29.522Z,8.57
2018-07-23T00:17:58.784Z,9.93
2018-07-23T00:20:27.278Z,9.73
2018-07-23T00:22:55.964Z,9.73
2018-07-23T00:25:24.870Z,9.93
2018-07-23T00:27:53.842Z,9.03
2018-07-23T00:30:22.924Z,8.80
2018-07-23T00:32:51.544Z,9.27
2018-07-23T00:35:20.336Z,8.60
2018-07-23T00:37:49.535Z,8.80
2018-07-23T00:40:18.220Z,10.97
2018-07-23T00:42:46.901Z,8.20
2018-07-23T00:45:15.910Z,10.97
2018-07-23T00:47:44.922Z,9.30
2018-07-23T00:50:13.722Z,11.67
2018-07-23T00:52:42.518Z,8.80
2018-07-23T00:55:10.934Z,10.47
2018-07-23T00:57:39.870Z,8.60
2018-07-23T01:00:08.611Z,9.30
2018-07-23T01:02:37.027Z,9.23
2018-07-23T01:05:05.683Z,8.53
2018-07-23T01:07:34.714Z,10.07
2018-07-23T01:10:04.261Z,9.53
2018-07-23T01:12:33.896Z,9.37
2018-07-23T01:15:02.673Z,8.77
2018-07-23T01:17:31.462Z,8.63
2018-07-23T01:20:00.369Z,10.00
2018-07-23T01:22:29.491Z,11.17
2018-07-23T01:24:58.851Z,9.33
2018-07-23T01:27:27.636Z,8.37
2018-07-23T01:29:56.932Z,8.20
2018-07-23T01:32:25.552Z,9.40
2018-07-23T01:34:54.836Z,8.90
2018-07-23T01:37:23.509Z,8.70
2018-07-23T01:39:51.948Z,8.57
2018-07-23T01:42:21.189Z,11.20
2018-07-23T01:44:49.678Z,10.33
2018-07-23T01:47:18.292Z,10.10
2018-07-23T01:49:46.982Z,8.50
2018-07-23T01:52:15.997Z,8.80
2018-07-23T01:54:44.958Z,9.00
2018-07-23T01:57:14.108Z,10.53
2018-07-23T01:59:42.982Z,8.73
2018-07-23T02:02:12.125Z,11.73
2018-07-23T02:04:41.295Z,8.23
2018-07-23T02:07:09.951Z,9.33
2018-07-23T02:09:38.802Z,8.63
2018-07-23T02:12:07.902Z,9.83
2018-07-23T02:14:36.691Z,8.90
2018-07-23T02:17:05.595Z,8.63
2018-07-23T02:19:35.012Z,10.30
2018-07-23T02:22:03.731Z,8.50
2018-07-23T02:24:32.266Z,8.47
2018-07-23T02:27:00.956Z,8.17
2018-07-23T02:29:29.644Z,8.40
2018-07-23T02:31:58.936Z,9.13
2018-07-23T02:34:28.222Z,9.40
2018-07-23T02:36:56.976Z,9.03
2018-07-23T02:39:25.716Z,10.20
2018-07-23T02:41:54.377Z,9.90
2018-07-23T02:44:23.336Z,8.57
2018-07-23T02:46:52.074Z,11.23
2018-07-23T02:49:20.785Z,10.43
2018-07-23T02:51:49.490Z,11.53
2018-07-23T02:54:18.045Z,8.40
2018-07-23T02:56:47.313Z,8.67
2018-07-23T02:59:16.030Z,8.63
2018-07-23T03:01:44.875Z,8.67
2018-07-23T03:04:13.578Z,9.10
2018-07-23T03:06:42.777Z,12.13
2018-07-23T03:09:12.013Z,8.10
2018-07-23T03:11:40.658Z,8.10
2018-07-23T03:14:09.201Z,10.53
2018-07-23T03:16:38.032Z,9.53
2018-07-23T03:19:06.528Z,8.63
2018-07-23T03:21:35.781Z,8.60
2018-07-23T03:24:04.429Z,10.10
2018-07-23T03:26:33.129Z,11.57
2018-07-23T03:29:02.141Z,9.43
2018-07-23T03:31:30.862Z,9.63
2018-07-23T03:33:59.781Z,11.03
2018-07-23T03:36:28.211Z,10.47
2018-07-23T03:38:56.969Z,9.20
2018-07-23T03:41:25.567Z,10.40
2018-07-23T03:43:54.590Z,10.40
2018-07-23T03:46:23.237Z,8.87
2018-07-23T03:48:52.099Z,10.67
2018-07-23T03:51:20.594Z,8.67
2018-07-23T03:53:49.605Z,9.00
2018-07-23T03:56:18.361Z,11.63
2018-07-23T03:58:47.250Z,9.17
2018-07-23T04:01:16.300Z,8.63
2018-07-23T04:03:45.262Z,8.70
2018-07-23T04:06:14.249Z,9.37
2018-07-23T04:08:42.980Z,11.00
2018-07-23T04:11:12.016Z,9.43
2018-07-23T04:13:40.642Z,10.57
2018-07-23T04:16:09.764Z,8.73
2018-07-23T04:18:38.589Z,9.30
2018-07-23T04:21:07.155Z,10.63
2018-07-23T04:23:35.775Z,10.30
2018-07-23T04:26:04.385Z,12.50
2018-07-23T04:28:33.143Z,13.33
2018-07-23T04:31:02.047Z,11.83
2018-07-23T04:33:30.819Z,13.57
2018-07-23T04:35:59.950Z,15.87
2018-07-23T04:38:28.691Z,9.33
2018-07-23T04:40:58.124Z,10.73
2018-07-23T04:43:27.007Z,9.70
2018-07-23T04:45:56.041Z,10.43
2018-07-23T04:48:24.733Z,11.57
2018-07-23T04:50:53.744Z,11.30
2018-07-23T04:53:22.480Z,10.47
2018-07-23T04:55:51.407Z,11.43
2018-07-23T04:58:20.177Z,10.80
2018-07-23T05:00:49.358Z,9.43
2018-07-23T05:03:18.696Z,12.37
2018-07-23T05:05:47.708Z,11.80
2018-07-23T05:08:16.612Z,9.00
2018-07-23T05:10:45.375Z,13.43
2018-07-23T05:13:14.286Z,9.83
2018-07-23T05:15:43.086Z,9.23
2018-07-23T05:18:11.746Z,14.70
2018-07-23T05:20:40.672Z,12.37
2018-07-23T05:23:09.172Z,9.50
2018-07-23T05:25:38.120Z,9.23
2018-07-23T05:28:07.095Z,10.80
2018-07-23T05:30:35.758Z,9.87
2018-07-23T05:33:04.744Z,14.33
2018-07-23T05:35:34.017Z,14.03
2018-07-23T05:38:02.440Z,10.80
2018-07-23T05:40:30.909Z,11.87
2018-07-23T05:42:59.526Z,11.87
2018-07-23T05:45:28.522Z,12.13
2018-07-23T05:47:57.274Z,11.87
2018-07-23T05:50:26.160Z,10.97
2018-07-23T05:52:55.444Z,11.53
2018-07-23T05:55:23.936Z,13.07
2018-07-23T05:57:52.865Z,11.33
2018-07-23T06:00:21.581Z,12.33
2018-07-23T06:02:50.473Z,11.90
2018-07-23T06:05:19.059Z,9.47
2018-07-23T06:07:47.946Z,10.13
2018-07-23T06:10:16.893Z,12.07
2018-07-23T06:12:45.871Z,11.40
2018-07-23T06:15:14.771Z,12.30
2018-07-23T06:17:43.264Z,9.10
2018-07-23T06:20:11.945Z,10.13
2018-07-23T06:22:41.025Z,10.13
2018-07-23T06:25:09.879Z,10.23
2018-07-23T06:27:38.415Z,16.03
2018-07-23T06:30:08.561Z,11.33
2018-07-23T06:32:37.176Z,9.97
2018-07-23T06:35:06.454Z,9.67
2018-07-23T06:37:35.553Z,11.93
2018-07-23T06:40:04.918Z,9.07
2018-07-23T06:42:33.522Z,12.27
2018-07-23T06:45:02.529Z,9.33
2018-07-23T06:47:31.508Z,11.63
2018-07-23T06:50:00.203Z,11.57
2018-07-23T06:52:29.256Z,11.50
2018-07-23T06:54:57.945Z,9.77
2018-07-23T06:57:27.076Z,10.27
2018-07-23T06:59:56.047Z,12.23
2018-07-23T07:02:24.543Z,11.77
2018-07-23T07:04:53.624Z,10.03
2018-07-23T07:07:22.224Z,8.03
2018-07-23T07:09:51.238Z,8.30
2018-07-23T07:12:20.210Z,8.80
2018-07-23T07:14:49.234Z,8.17
2018-07-23T07:17:18.175Z,8.50
2018-07-23T07:19:46.943Z,9.37
2018-07-23T07:22:15.604Z,9.07
2018-07-23T07:24:44.554Z,7.73
2018-07-23T07:27:13.311Z,8.27
2018-07-23T07:29:42.235Z,10.43
2018-07-23T07:32:11.051Z,9.67
2018-07-23T07:34:39.806Z,10.13
2018-07-23T07:37:08.300Z,9.87
2018-07-23T07:39:36.988Z,10.20
2018-07-23T07:42:05.681Z,8.67
2018-07-23T07:44:35.003Z,9.60
2018-07-23T07:47:03.802Z,8.90
2018-07-23T07:49:32.365Z,9.23
2018-07-23T07:52:01.057Z,7.77
2018-07-23T07:54:29.521Z,8.33
2018-07-23T07:56:58.188Z,9.53
2018-07-23T07:59:26.791Z,9.17
2018-07-23T08:01:55.552Z,9.50
2018-07-23T08:04:24.234Z,7.37
2018-07-23T08:06:53.080Z,8.47
2018-07-23T08:09:21.854Z,7.93
2018-07-23T08:11:50.728Z,8.77
2018-07-23T08:14:19.294Z,11.10
2018-07-23T08:16:47.902Z,8.93
2018-07-23T08:19:16.963Z,10.33
2018-07-23T08:21:45.915Z,9.13
2018-07-23T08:24:14.654Z,8.63
2018-07-23T08:26:43.275Z,10.37
2018-07-23T08:29:11.779Z,9.48
2018-07-23T08:31:40.407Z,8.67
2018-07-23T08:34:09.015Z,8.20
2018-07-23T08:36:37.885Z,8.60
2018-07-23T08:39:07.643Z,7.30
2018-07-23T08:41:36.394Z,7.50
2018-07-23T08:44:05.577Z,8.57
2018-07-23T08:46:34.255Z,8.50
2018-07-23T08:49:03.275Z,7.83
2018-07-23T08:51:32.382Z,7.62
2018-07-23T08:54:01.241Z,7.83
2018-07-23T08:56:30.358Z,7.90
2018-07-23T08:58:58.990Z,7.87
2018-07-23T09:01:27.648Z,11.50
2018-07-23T09:03:56.610Z,11.63
2018-07-23T09:06:25.003Z,7.80
2018-07-23T09:08:53.723Z,7.97
2018-07-23T09:11:23.015Z,7.43
2018-07-23T09:13:52.015Z,8.30
2018-07-23T09:16:20.988Z,9.67
2018-07-23T09:18:49.989Z,7.73
2018-07-23T09:21:18.670Z,7.50
2018-07-23T09:23:47.547Z,6.93
2018-07-23T09:26:16.172Z,7.63
2018-07-23T09:28:45.018Z,7.97
2018-07-23T09:31:13.513Z,9.90
2018-07-23T09:33:42.366Z,7.70
2018-07-23T09:36:11.099Z,9.75
2018-07-23T09:38:40.087Z,10.30
2018-07-23T09:41:09.138Z,8.70
2018-07-23T09:43:38.061Z,12.73
2018-07-23T09:46:06.701Z,9.37
2018-07-23T09:48:35.476Z,9.20
2018-07-23T09:51:04.235Z,8.20
2018-07-23T09:53:33.139Z,10.47
2018-07-23T09:56:01.917Z,9.15
2018-07-23T09:58:30.861Z,8.83
2018-07-23T10:01:04.767Z,9.87
2018-07-23T10:03:33.525Z,9.43
2018-07-23T10:06:02.667Z,9.13
2018-07-23T10:08:31.706Z,13.53
2018-07-23T10:11:01.015Z,7.17
2018-07-23T10:13:30.013Z,6.45
2018-07-23T10:15:59.038Z,7.47
2018-07-23T10:18:27.764Z,6.77
2018-07-23T10:20:56.478Z,13.13
2018-07-23T10:23:25.170Z,6.70
2018-07-23T10:25:53.614Z,10.33
2018-07-23T10:28:21.926Z,7.40
2018-07-23T10:30:50.261Z,7.10
2018-07-23T10:33:18.877Z,7.20
2018-07-23T10:35:47.172Z,7.17
2018-07-23T10:38:15.661Z,9.23
2018-07-23T10:40:44.444Z,7.67
2018-07-23T10:43:13.109Z,7.93
2018-07-23T10:45:42.687Z,6.87
2018-07-23T10:48:11.172Z,9.10
2018-07-23T10:50:39.856Z,7.60
2018-07-23T10:53:08.533Z,6.90
2018-07-23T10:55:36.924Z,8.30
2018-07-23T10:58:06.028Z,7.97
2018-07-23T11:00:34.314Z,15.03
2018-07-23T11:03:02.599Z,6.30
2018-07-23T11:05:31.091Z,6.60
2018-07-23T11:07:59.374Z,6.90
2018-07-23T11:10:27.756Z,6.50
2018-07-23T11:12:56.742Z,8.17
2018-07-23T11:15:25.704Z,9.83
2018-07-23T11:17:53.992Z,7.93
2018-07-23T11:20:22.453Z,6.53
2018-07-23T11:22:50.863Z,7.47
2018-07-23T11:25:38.875Z,6.40
2018-07-23T11:27:47.929Z,6.43
2018-07-23T11:30:16.840Z,6.80
2018-07-23T11:32:45.905Z,6.90
2018-07-23T11:35:14.372Z,7.50
2018-07-23T11:37:43.063Z,7.93
2018-07-23T11:40:11.713Z,9.53
2018-07-23T11:42:40.058Z,6.47
2018-07-23T11:45:08.354Z,6.63
2018-07-23T11:47:37.433Z,6.60
2018-07-23T11:50:05.889Z,6.67
2018-07-23T11:52:34.568Z,6.20
2018-07-23T11:55:03.455Z,6.20
2018-07-23T11:57:32.194Z,6.37
2018-07-23T12:00:01.013Z,6.50
2018-07-23T12:02:29.542Z,6.27
2018-07-23T12:04:57.935Z,6.23
2018-07-23T12:07:26.684Z,6.35
2018-07-23T12:09:54.971Z,8.60
2018-07-23T12:12:23.455Z,7.03
2018-07-23T12:14:51.746Z,7.47
2018-07-23T12:17:20.188Z,6.83
2018-07-23T12:19:48.483Z,7.00
2018-07-23T12:22:16.879Z,6.97
2018-07-23T12:24:45.297Z,6.13
2018-07-23T12:27:13.598Z,8.63
2018-07-23T12:29:42.594Z,6.47
2018-07-23T12:32:11.010Z,8.47
2018-07-23T12:34:39.944Z,11.33
2018-07-23T12:37:08.681Z,7.93
2018-07-23T12:39:37.426Z,7.13
2018-07-23T12:42:05.754Z,8.17
2018-07-23T12:44:34.120Z,6.33
2018-07-23T12:47:02.609Z,8.03
2018-07-23T12:49:31.221Z,9.57
2018-07-23T12:51:59.540Z,7.80
2018-07-23T12:54:28.264Z,8.77
2018-07-23T12:56:56.556Z,9.30
2018-07-23T12:59:25.328Z,8.37
2018-07-23T13:01:54.022Z,7.67
2018-07-23T13:04:23.317Z,10.32
2018-07-23T13:06:51.716Z,11.23
2018-07-23T13:09:20.371Z,13.40
2018-07-23T13:11:48.756Z,14.70
2018-07-23T13:14:17.153Z,6.90
2018-07-23T13:16:46.165Z,6.30
2018-07-23T13:19:14.925Z,7.53
2018-07-23T13:21:43.199Z,12.13
2018-07-23T13:24:11.675Z,8.13
2018-07-23T13:26:40.361Z,8.47
2018-07-23T13:29:08.945Z,7.27
2018-07-23T13:31:38.040Z,8.87
2018-07-23T13:34:06.726Z,8.97
2018-07-23T13:36:35.073Z,6.33
2018-07-23T13:39:03.563Z,7.07
2018-07-23T13:41:32.448Z,6.70
2018-07-23T13:44:00.776Z,7.40
2018-07-23T13:46:29.525Z,6.70
2018-07-23T13:48:57.828Z,6.33
2018-07-23T13:51:26.243Z,7.30
2018-07-23T13:53:54.541Z,7.23
2018-07-23T13:56:23.063Z,8.93
2018-07-23T13:58:51.443Z,7.05
2018-07-23T14:01:19.860Z,7.20
2018-07-23T14:03:48.142Z,10.20
2018-07-23T14:06:16.488Z,8.57
2018-07-23T14:08:45.151Z,7.47
2018-07-23T14:11:13.452Z,9.47
2018-07-23T14:13:41.738Z,8.13
2018-07-23T14:16:10.159Z,8.80
2018-07-23T14:18:38.481Z,9.13
2018-07-23T14:21:06.792Z,9.07
2018-07-23T14:23:35.251Z,8.20
2018-07-23T14:26:03.538Z,8.40
2018-07-23T14:28:31.897Z,8.87
2018-07-23T14:31:00.262Z,8.17
2018-07-23T14:33:28.566Z,7.93
2018-07-23T14:35:56.849Z,7.77
2018-07-23T14:38:25.232Z,8.93
2018-07-23T14:40:53.520Z,9.43
2018-07-23T14:43:21.845Z,8.60
2018-07-23T14:45:50.852Z,10.03
2018-07-23T14:48:19.133Z,10.27
2018-07-23T14:50:47.524Z,12.27
2018-07-23T14:53:16.308Z,9.50
2018-07-23T14:55:44.693Z,11.77
2018-07-23T14:58:12.991Z,13.07
2018-07-23T15:00:41.283Z,9.40
2018-07-23T15:03:09.568Z,10.83
2018-07-23T15:05:37.895Z,11.50
2018-07-23T15:08:06.199Z,9.40
2018-07-23T15:10:34.550Z,8.60
2018-07-23T15:13:03.032Z,9.20
2018-07-23T15:15:31.960Z,8.47
2018-07-23T15:18:00.884Z,14.57
2018-07-23T15:20:29.196Z,8.30
2018-07-23T15:22:57.769Z,8.90
2018-07-23T15:25:26.261Z,8.90
2018-07-23T15:27:54.640Z,8.43
2018-07-23T15:30:23.327Z,8.50
2018-07-23T15:32:51.636Z,8.50
2018-07-23T15:35:20.283Z,10.47
2018-07-23T15:37:48.579Z,8.27
2018-07-23T15:40:17.053Z,10.77
2018-07-23T15:42:45.358Z,8.23
2018-07-23T15:45:14.536Z,8.73
2018-07-23T15:47:42.799Z,7.83
2018-07-23T15:50:11.182Z,8.00
2018-07-23T15:52:39.500Z,9.80
2018-07-23T15:55:07.872Z,14.43
2018-07-23T15:57:36.424Z,8.10
2018-07-23T16:00:05.263Z,7.60
2018-07-23T16:02:33.797Z,8.05
2018-07-23T16:05:02.107Z,8.63
2018-07-23T16:07:30.468Z,8.33
2018-07-23T16:09:58.767Z,9.37
2018-07-23T16:12:27.052Z,7.50
2018-07-23T16:14:55.593Z,8.77
2018-07-23T16:17:24.204Z,8.27
2018-07-23T16:19:52.661Z,10.40
2018-07-23T16:22:21.140Z,8.90
2018-07-23T16:24:49.521Z,10.33
2018-07-23T16:27:17.799Z,9.83
2018-07-23T16:29:46.804Z,9.63
2018-07-23T16:32:15.344Z,10.53
2018-07-23T16:34:43.672Z,9.30
2018-07-23T16:37:11.955Z,8.07
2018-07-23T16:39:40.232Z,8.97
2018-07-23T16:42:08.752Z,9.93
2018-07-23T16:44:37.027Z,8.40
2018-07-23T16:47:05.555Z,9.73
2018-07-23T16:49:33.931Z,9.93
2018-07-23T16:52:02.208Z,8.70
2018-07-23T16:54:30.508Z,8.13
2018-07-23T16:56:58.816Z,10.53
2018-07-23T16:59:27.347Z,8.80
2018-07-23T17:01:55.674Z,10.33
2018-07-23T17:04:23.964Z,9.93
2018-07-23T17:06:52.588Z,8.20
2018-07-23T17:09:20.864Z,9.50
2018-07-23T17:11:49.241Z,8.20
2018-07-23T17:14:17.684Z,7.67
2018-07-23T17:16:45.956Z,10.77
2018-07-23T17:19:14.384Z,10.60
2018-07-23T17:21:43.008Z,8.47
2018-07-23T17:24:11.422Z,8.50
2018-07-23T17:26:39.756Z,10.90
2018-07-23T17:29:08.324Z,8.53
2018-07-23T17:31:36.612Z,8.53
2018-07-23T17:34:05.848Z,8.87
2018-07-23T17:36:34.270Z,8.53
2018-07-23T17:39:02.568Z,12.73
2018-07-23T17:41:31.130Z,9.63
2018-07-23T17:43:59.433Z,8.43
2018-07-23T17:46:27.784Z,7.83
2018-07-23T17:48:56.176Z,8.40
2018-07-23T17:51:24.645Z,9.57
2018-07-23T17:53:52.936Z,9.60
2018-07-23T17:56:21.404Z,9.10
2018-07-23T17:58:49.997Z,9.87
2018-07-23T18:01:18.513Z,9.70
2018-07-23T18:03:46.959Z,10.73
2018-07-23T18:06:15.443Z,10.03
2018-07-23T18:08:43.826Z,9.70
2018-07-23T18:11:12.143Z,10.37
2018-07-23T18:13:40.420Z,9.90
2018-07-23T18:16:08.712Z,10.43
2018-07-23T18:18:37.012Z,11.00
2018-07-23T18:21:05.408Z,10.03
2018-07-23T18:23:33.752Z,10.70
2018-07-23T18:26:02.033Z,10.50
2018-07-23T18:28:30.321Z,10.83
2018-07-23T18:30:58.644Z,11.93
2018-07-23T18:33:27.097Z,10.80
2018-07-23T18:35:55.377Z,10.00
2018-07-23T18:38:23.854Z,11.70
2018-07-23T18:40:52.376Z,11.40
2018-07-23T18:43:21.157Z,10.63
2018-07-23T18:45:49.488Z,10.63
2018-07-23T18:50:28.550Z,10.53
2018-07-23T18:52:56.864Z,11.27
2018-07-23T18:55:25.699Z,11.53
2018-07-23T18:57:54.042Z,11.27
2018-07-23T19:00:22.341Z,12.20
2018-07-23T19:02:50.647Z,10.87
2018-07-23T19:05:18.944Z,11.57
2018-07-23T19:07:47.242Z,12.07
2018-07-23T19:10:15.596Z,11.93
2018-07-23T19:12:44.176Z,10.57
2018-07-23T19:15:12.481Z,11.77
2018-07-23T19:17:42.144Z,11.23
2018-07-23T19:20:10.498Z,11.10
2018-07-23T19:22:39.117Z,11.53
2018-07-23T19:25:07.576Z,13.73
2018-07-23T19:27:36.249Z,14.00
2018-07-23T19:30:04.779Z,11.23
2018-07-23T19:32:33.076Z,11.83
2018-07-23T19:35:01.405Z,11.97
2018-07-23T19:37:29.820Z,13.73
2018-07-23T19:39:58.440Z,14.63
2018-07-23T19:42:26.774Z,12.87
2018-07-23T19:44:55.357Z,11.60
2018-07-23T19:47:23.644Z,12.63
2018-07-23T19:49:51.936Z,12.77
2018-07-23T19:52:20.233Z,12.33
2018-07-23T19:54:48.572Z,12.00
2018-07-23T19:57:16.997Z,15.90
2018-07-23T19:59:45.285Z,12.00
2018-07-23T20:02:13.609Z,13.93
2018-07-23T20:04:42.086Z,17.33
2018-07-23T20:07:11.305Z,16.00
2018-07-23T20:09:39.600Z,12.47
2018-07-23T20:12:07.892Z,15.83
2018-07-23T20:14:36.189Z,13.00
2018-07-23T20:17:04.470Z,13.67
2018-07-23T20:19:32.830Z,12.37
2018-07-23T20:22:01.114Z,11.30
2018-07-23T20:24:29.397Z,12.17
2018-07-23T20:26:57.808Z,12.67
2018-07-23T20:29:26.833Z,12.90
2018-07-23T20:31:55.120Z,12.50
2018-07-23T20:34:23.562Z,13.40
2018-07-23T20:36:51.889Z,12.37
2018-07-23T20:39:20.584Z,13.10
2018-07-23T20:41:48.957Z,13.20
2018-07-23T20:44:17.436Z,13.50
2018-07-23T20:46:45.701Z,14.03
2018-07-23T20:49:14.082Z,13.33
2018-07-23T20:51:42.385Z,14.77
2018-07-23T20:54:10.917Z,13.27
2018-07-23T20:56:39.255Z,14.03
2018-07-23T20:59:07.540Z,13.47
2018-07-23T21:01:35.892Z,12.83
2018-07-23T21:04:04.348Z,13.73
2018-07-23T21:06:32.767Z,13.43
2018-07-23T21:09:01.421Z,12.93
2018-07-23T21:11:29.875Z,13.00
2018-07-23T21:13:58.204Z,12.63
2018-07-23T21:16:26.546Z,12.60
2018-07-23T21:18:54.908Z,13.00
2018-07-23T21:21:23.306Z,13.20
2018-07-23T21:23:52.002Z,12.70
2018-07-23T21:26:20.312Z,13.13
2018-07-23T21:28:48.600Z,12.70
2018-07-23T21:31:16.892Z,12.80
2018-07-23T21:33:45.232Z,13.20
2018-07-23T21:36:13.570Z,12.23
2018-07-23T21:38:41.857Z,13.23
2018-07-23T21:41:10.160Z,12.80
2018-07-23T21:43:38.452Z,13.47
2018-07-23T21:46:06.747Z,12.87
2018-07-23T21:48:35.064Z,13.90
2018-07-23T21:51:03.361Z,13.83
2018-07-23T21:53:31.807Z,14.17
2018-07-23T21:56:00.170Z,14.50
2018-07-23T21:58:28.463Z,13.70
2018-07-23T22:00:56.749Z,13.43
2018-07-23T22:03:25.224Z,13.33
2018-07-23T22:05:53.532Z,14.23
2018-07-23T22:08:21.985Z,12.80
2018-07-23T22:10:50.288Z,14.97
2018-07-23T22:13:18.628Z,12.97
2018-07-23T22:15:47.021Z,13.30
2018-07-23T22:18:15.650Z,13.37
2018-07-23T22:20:43.948Z,15.00
2018-07-23T22:23:12.245Z,13.47
2018-07-23T22:25:40.565Z,13.47
2018-07-23T22:28:09.152Z,13.63
2018-07-23T22:30:37.837Z,12.93
2018-07-23T22:33:06.293Z,13.27
2018-07-23T22:35:34.980Z,14.13
2018-07-23T22:38:03.272Z,14.67
2018-07-23T22:40:31.577Z,13.23
2018-07-23T22:43:00.018Z,13.33
2018-07-23T22:45:28.497Z,13.83
2018-07-23T22:47:56.971Z,13.87
2018-07-23T22:50:25.713Z,14.27
2018-07-23T22:52:54.300Z,14.07
2018-07-23T22:55:23.036Z,13.13
2018-07-23T22:57:51.391Z,14.87
2018-07-23T23:00:19.681Z,14.00
2018-07-23T23:02:48.392Z,14.33
2018-07-23T23:05:16.692Z,14.23
2018-07-23T23:07:45.251Z,14.60
2018-07-23T23:10:13.601Z,14.30
2018-07-23T23:12:41.883Z,16.17
2018-07-23T23:15:10.378Z,14.77
2018-07-23T23:17:38.701Z,14.33
2018-07-23T23:20:06.992Z,14.67
2018-07-23T23:22:35.420Z,13.77
2018-07-23T23:25:03.829Z,13.50
2018-07-23T23:27:32.166Z,14.70
2018-07-23T23:30:00.557Z,15.60
2018-07-23T23:32:28.896Z,14.23
2018-07-23T23:34:57.235Z,14.40
2018-07-23T23:37:25.524Z,15.83
2018-07-23T23:39:53.813Z,14.60
2018-07-23T23:42:22.263Z,13.80
2018-07-23T23:44:50.584Z,15.17
2018-07-23T23:47:19.005Z,14.63
2018-07-23T23:49:47.659Z,14.80
2018-07-23T23:52:15.940Z,14.33
2018-07-23T23:54:45.005Z,14.73
2018-07-23T23:57:14.267Z,14.20
2018-07-23T23:59:42.566Z,14.27
